Time;durP1;ratioP1;P1;durP2;ratioP2;P2;SDS_P1;SDS_P2;PMS_P1;PMS_P2;Temp;Humidity;BMP_temperature;BMP_pressure;BME280_temperature;BME280_humidity;BME280_pressure;Samples;Min_cycle;Max_cycle;Signal;HPM_P1;HPM_P2
2020/12/26 00:01:19;;;;;;;6.40;2.60;;;;;;;1.91;73.92;99123.52;123693;1142;23075;-66
2020/12/26 00:03:47;;;;;;;4.85;2.10;;;;;;;1.90;73.01;99115.67;124575;1144;22760;-66
2020/12/26 00:06:18;;;;;;;4.47;2.47;;;;;;;1.89;73.62;99122.08;124816;1144;22702;-62
2020/12/26 00:08:46;;;;;;;3.90;2.40;;;;;;;1.88;72.82;99112.36;124643;1144;22880;-62
2020/12/26 00:11:14;;;;;;;5.13;2.90;;;;;;;1.88;72.51;99126.63;124535;1144;23879;-62
2020/12/26 00:13:41;;;;;;;6.17;2.83;;;;;;;1.86;72.62;99126.03;124621;1144;22726;-62
2020/12/26 00:16:09;;;;;;;5.80;2.90;;;;;;;1.85;72.83;99135.13;124822;1142;22692;-62
2020/12/26 00:18:37;;;;;;;4.27;2.53;;;;;;;1.87;72.92;99145.66;124491;1143;22647;-62
2020/12/26 00:21:05;;;;;;;5.45;2.80;;;;;;;1.82;73.70;99129.34;124580;1143;23613;-62
2020/12/26 00:23:33;;;;;;;4.63;2.33;;;;;;;1.91;73.12;99139.64;124639;1143;23267;-62
2020/12/26 00:26:00;;;;;;;7.35;2.95;;;;;;;1.92;73.61;99141.30;124630;1143;22683;-62
2020/12/26 00:28:28;;;;;;;5.30;3.10;;;;;;;1.94;73.46;99146.45;124759;1144;23763;-62
2020/12/26 00:30:55;;;;;;;7.47;3.77;;;;;;;1.92;73.73;99148.52;124550;1144;22741;-62
2020/12/26 00:33:23;;;;;;;7.65;4.00;;;;;;;1.93;73.06;99142.94;124692;1142;23376;-62
2020/12/26 00:35:50;;;;;;;7.83;4.00;;;;;;;1.96;73.30;99147.08;124656;1142;22694;-66
2020/12/26 00:38:18;;;;;;;12.57;4.73;;;;;;;1.97;73.42;99146.03;124569;1144;22699;-66
2020/12/26 00:40:45;;;;;;;10.93;4.53;;;;;;;1.97;72.85;99154.92;124702;1144;22655;-66
2020/12/26 00:43:12;;;;;;;8.63;4.80;;;;;;;1.98;73.32;99151.20;124679;1144;22671;-66
2020/12/26 00:45:40;;;;;;;10.57;4.43;;;;;;;1.99;72.94;99160.09;124633;1143;22696;-66
2020/12/26 00:48:07;;;;;;;7.13;3.80;;;;;;;1.99;72.60;99157.41;124641;1142;22684;-66
2020/12/26 00:50:35;;;;;;;7.25;3.95;;;;;;;1.99;73.49;99155.55;124501;1143;22698;-66
2020/12/26 00:53:03;;;;;;;9.67;4.07;;;;;;;1.99;73.47;99152.86;124683;1144;22705;-66
2020/12/26 00:55:30;;;;;;;10.93;3.47;;;;;;;2.01;72.74;99155.33;124561;1144;22708;-66
2020/12/26 00:57:57;;;;;;;6.70;3.67;;;;;;;2.00;72.44;99159.05;124636;1144;22668;-66
2020/12/26 01:00:25;;;;;;;8.67;3.87;;;;;;;1.99;73.04;99160.09;124560;1144;22755;-66
2020/12/26 01:03:01;;;;;;;5.10;3.30;;;;;;;1.97;72.68;99151.41;124625;1143;22672;-66
2020/12/26 01:05:33;;;;;;;6.35;2.70;;;;;;;1.88;72.98;99150.80;124705;1143;22671;-62
2020/12/26 01:08:00;;;;;;;4.10;2.75;;;;;;;1.94;72.77;99165.26;124649;1144;22678;-63
2020/12/26 01:10:27;;;;;;;6.40;2.90;;;;;;;1.92;73.08;99161.95;124606;1144;22681;-62
2020/12/26 01:12:55;;;;;;;5.97;2.20;;;;;;;1.94;73.43;99170.63;124625;1144;24078;-62
2020/12/26 01:15:22;;;;;;;5.20;1.95;;;;;;;1.93;72.75;99164.44;124761;1142;22691;-62
2020/12/26 01:17:50;;;;;;;5.80;2.30;;;;;;;1.92;73.36;99152.03;124581;1142;22650;-62
2020/12/26 01:20:17;;;;;;;5.10;2.90;;;;;;;1.93;73.12;99158.23;124729;1142;22662;-62
2020/12/26 01:22:45;;;;;;;4.40;2.20;;;;;;;1.94;73.11;99162.58;124586;1144;22782;-62
2020/12/26 01:25:12;;;;;;;3.60;2.10;;;;;;;1.96;73.38;99163.19;124613;1144;22668;-62
2020/12/26 01:27:40;;;;;;;7.00;2.03;;;;;;;1.94;72.97;99155.34;124607;1144;23914;-62
2020/12/26 01:30:07;;;;;;;5.25;2.50;;;;;;;1.98;73.16;99169.19;124627;1144;22675;-62
2020/12/26 01:32:34;;;;;;;3.85;2.20;;;;;;;1.99;72.97;99171.66;124509;1144;22771;-62
2020/12/26 01:35:02;;;;;;;4.90;2.03;;;;;;;1.98;72.66;99161.13;124775;1144;22684;-62
2020/12/26 01:37:29;;;;;;;5.90;2.50;;;;;;;1.98;73.16;99163.81;124584;1144;22719;-62
2020/12/26 01:39:58;;;;;;;4.63;2.20;;;;;;;1.96;72.74;99155.13;124718;1142;22714;-62
2020/12/26 01:42:26;;;;;;;4.35;2.95;;;;;;;1.92;72.90;99157.41;124541;1143;22671;-62
2020/12/26 01:44:53;;;;;;;4.95;2.30;;;;;;;1.89;72.52;99162.37;124746;1144;23291;-62
2020/12/26 01:47:20;;;;;;;4.67;2.00;;;;;;;1.87;73.08;99154.55;124653;1143;22786;-62
2020/12/26 01:49:48;;;;;;;5.50;2.15;;;;;;;1.86;73.84;99142.16;124578;1144;22645;-62
2020/12/26 01:52:15;;;;;;;7.23;2.57;;;;;;;1.86;73.08;99147.52;124572;1142;22707;-62
2020/12/26 01:54:59;;;;;;;3.50;1.83;;;;;;;1.85;73.25;99151.25;124724;1143;22677;-62
2020/12/26 01:57:33;;;;;;;3.50;2.00;;;;;;;1.84;72.92;99151.45;124647;1142;22790;-62
2020/12/26 02:00:05;;;;;;;4.93;2.17;;;;;;;1.84;72.93;99154.14;124615;1144;22678;-62
2020/12/26 02:02:43;;;;;;;4.05;2.20;;;;;;;1.84;73.00;99154.14;124872;1143;22759;-62
2020/12/26 02:05:25;;;;;;;4.23;2.07;;;;;;;1.82;72.77;99154.34;124630;1144;22827;-62
2020/12/26 02:08:01;;;;;;;3.60;2.13;;;;;;;1.82;73.12;99150.84;124461;1144;22846;-62
2020/12/26 02:10:29;;;;;;;3.60;2.23;;;;;;;1.79;72.68;99154.77;124552;1144;24102;-63
2020/12/26 02:12:56;;;;;;;2.93;1.70;;;;;;;1.81;72.82;99165.30;124561;1144;23575;-62
2020/12/26 02:15:24;;;;;;;3.80;1.90;;;;;;;1.81;72.69;99162.61;124641;1144;22671;-66
2020/12/26 02:17:51;;;;;;;3.25;1.85;;;;;;;1.81;72.71;99165.30;124634;1144;22692;-66
2020/12/26 02:20:34;;;;;;;5.50;2.33;;;;;;;1.79;73.01;99168.19;124619;1144;22686;-66
2020/12/26 02:23:02;;;;;;;4.43;2.30;;;;;;;1.79;73.47;99168.19;124537;1144;22692;-66
2020/12/26 02:25:30;;;;;;;4.50;2.65;;;;;;;1.81;73.32;99173.36;124534;1143;23301;-66
2020/12/26 02:27:58;;;;;;;3.87;2.40;;;;;;;1.78;73.49;99172.73;124755;1142;22683;-66
2020/12/26 02:30:25;;;;;;;6.25;2.70;;;;;;;1.77;72.83;99176.45;124594;1143;22763;-66
2020/12/26 02:32:52;;;;;;;6.07;3.17;;;;;;;1.79;73.00;99181.62;124740;1143;23293;-66
2020/12/26 02:35:20;;;;;;;5.33;2.80;;;;;;;1.76;72.54;99188.23;124668;1144;23746;-66
2020/12/26 02:37:47;;;;;;;5.47;2.97;;;;;;;1.73;72.67;99191.33;124774;1143;23611;-66
2020/12/26 02:40:14;;;;;;;3.55;2.30;;;;;;;1.71;73.40;99187.22;124592;1144;22766;-66
2020/12/26 02:42:42;;;;;;;3.75;2.30;;;;;;;1.69;73.32;99178.55;124737;1144;22666;-67
2020/12/26 02:45:09;;;;;;;3.15;2.05;;;;;;;1.65;72.99;99178.13;124501;1143;22680;-60
2020/12/26 02:47:37;;;;;;;4.27;2.37;;;;;;;1.65;73.37;99182.67;124721;1144;22735;-59
2020/12/26 02:50:04;;;;;;;3.27;2.10;;;;;;;1.66;72.47;99173.59;124680;1143;22722;-59
2020/12/26 02:52:32;;;;;;;3.60;2.30;;;;;;;1.61;71.57;99171.52;124717;1142;22681;-59
2020/12/26 02:54:59;;;;;;;3.80;2.10;;;;;;;1.54;71.26;99176.09;124552;1144;22728;-59
2020/12/26 02:57:26;;;;;;;3.30;1.90;;;;;;;1.52;72.06;99177.33;124775;1144;22684;-59
2020/12/26 02:59:54;;;;;;;4.37;2.57;;;;;;;1.53;71.89;99184.34;124665;1144;22900;-59
2020/12/26 03:02:21;;;;;;;3.50;1.80;;;;;;;1.51;72.14;99179.19;124587;1142;22673;-59
2020/12/26 03:04:48;;;;;;;3.10;2.13;;;;;;;1.50;71.82;99190.95;124709;1144;22698;-59
2020/12/26 03:07:16;;;;;;;2.67;1.83;;;;;;;1.51;71.53;99189.09;124438;1144;23279;-59
2020/12/26 03:09:44;;;;;;;3.27;1.90;;;;;;;1.54;71.69;99194.06;124746;1144;22763;-59
2020/12/26 03:12:11;;;;;;;2.60;1.83;;;;;;;1.53;71.34;99193.23;124625;1144;23285;-59
2020/12/26 03:14:39;;;;;;;3.93;2.03;;;;;;;1.54;71.94;99192.20;124772;1144;22739;-59
2020/12/26 03:17:06;;;;;;;2.33;1.70;;;;;;;1.56;71.71;99200.05;124557;1144;22677;-59
2020/12/26 03:19:35;;;;;;;3.63;2.03;;;;;;;1.57;71.61;99197.16;124772;1143;22666;-59
2020/12/26 03:22:02;;;;;;;3.80;2.23;;;;;;;1.56;72.47;99205.42;124584;1142;22750;-59
2020/12/26 03:24:30;;;;;;;6.10;2.50;;;;;;;1.59;71.25;99207.66;124667;1143;22794;-59
2020/12/26 03:26:57;;;;;;;4.10;2.50;;;;;;;1.60;71.97;99214.69;124614;1144;22660;-59
2020/12/26 03:29:24;;;;;;;4.13;2.53;;;;;;;1.61;72.02;99214.48;124750;1142;22681;-59
2020/12/26 03:31:54;;;;;;;5.77;2.27;;;;;;;1.60;72.35;99203.95;124520;1143;22698;-59
2020/12/26 03:34:22;;;;;;;4.17;2.30;;;;;;;1.59;71.32;99218.40;124712;1144;22827;-59
2020/12/26 03:36:50;;;;;;;5.20;3.50;;;;;;;1.54;71.16;99216.36;124556;1144;22712;-59
2020/12/26 03:39:17;;;;;;;5.67;2.53;;;;;;;1.50;71.66;99216.97;124775;1144;22655;-59
2020/12/26 03:41:45;;;;;;;3.27;2.27;;;;;;;1.48;71.78;99217.17;124477;1144;22695;-59
2020/12/26 03:44:13;;;;;;;3.60;2.00;;;;;;;1.44;71.60;99209.77;124756;1143;23824;-59
2020/12/26 03:46:40;;;;;;;3.90;2.40;;;;;;;1.41;71.79;99206.45;124653;1143;22690;-62
2020/12/26 03:49:07;;;;;;;4.55;2.50;;;;;;;1.39;72.09;99205.01;124521;1143;22767;-62
2020/12/26 03:51:35;;;;;;;3.45;2.20;;;;;;;1.41;72.56;99216.37;124777;1142;23431;-62
2020/12/26 03:54:02;;;;;;;3.25;2.15;;;;;;;1.39;71.84;99210.38;124591;1144;22771;-62
2020/12/26 03:56:29;;;;;;;6.00;3.70;;;;;;;1.36;71.97;99200.87;124720;1144;22796;-62
2020/12/26 03:58:57;;;;;;;6.03;4.20;;;;;;;1.33;71.69;99206.64;124528;1144;22661;-62
2020/12/26 04:01:24;;;;;;;12.30;6.67;;;;;;;1.32;71.57;99201.48;124698;1144;23419;-62
2020/12/26 04:03:52;;;;;;;13.73;6.10;;;;;;;1.27;71.50;99202.13;124781;1144;22669;-62
2020/12/26 04:06:19;;;;;;;11.60;5.90;;;;;;;1.23;71.77;99200.05;124507;1144;22709;-62
2020/12/26 04:08:47;;;;;;;33.43;14.77;;;;;;;1.22;71.43;99209.13;124624;1144;22699;-62
2020/12/26 04:11:14;;;;;;;37.40;17.13;;;;;;;1.19;72.23;99209.53;124770;1143;22700;-62
2020/12/26 04:13:42;;;;;;;21.80;10.15;;;;;;;1.15;71.33;99211.81;124441;1144;22750;-62
2020/12/26 04:16:12;;;;;;;15.83;8.50;;;;;;;1.09;72.12;99209.11;122893;1142;24618;-59
2020/12/26 04:18:40;;;;;;;14.30;6.55;;;;;;;1.04;71.88;99218.59;120178;1144;25953;-58
2020/12/26 04:21:08;;;;;;;9.13;4.90;;;;;;;1.05;72.09;99228.30;124580;1144;22806;-59
2020/12/26 04:23:37;;;;;;;6.97;4.17;;;;;;;1.04;72.24;99226.64;124677;1143;22703;-59
2020/12/26 04:26:08;;;;;;;6.05;3.10;;;;;;;1.03;71.09;99235.72;124621;1143;22765;-59
2020/12/26 04:28:35;;;;;;;6.47;2.93;;;;;;;0.97;71.43;99235.72;124532;1144;22670;-59
2020/12/26 04:31:52;;;;;;;7.97;3.67;;;;;;;0.93;71.93;99226.42;120119;1147;22927;-61
2020/12/26 04:34:19;;;;;;;9.00;3.77;;;;;;;0.88;71.91;99227.02;124260;1146;22767;-60
2020/12/26 04:36:47;;;;;;;8.07;4.57;;;;;;;0.88;71.67;99232.38;124446;1147;22711;-60
2020/12/26 04:39:14;;;;;;;10.87;4.77;;;;;;;0.84;71.55;99238.37;124282;1145;22714;-60
2020/12/26 04:41:42;;;;;;;10.75;4.70;;;;;;;0.82;71.57;99245.79;124401;1147;22671;-60
2020/12/26 04:44:10;;;;;;;13.00;4.60;;;;;;;0.80;72.23;99253.20;124228;1147;22715;-61
2020/12/26 04:46:38;;;;;;;11.03;4.80;;;;;;;0.79;72.66;99252.38;124297;1146;22694;-61
2020/12/26 04:49:07;;;;;;;11.60;5.55;;;;;;;0.83;72.88;99248.27;124244;1147;22755;-60
2020/12/26 04:51:39;;;;;;;11.10;5.25;;;;;;;0.86;73.01;99253.23;124317;1145;22748;-60
2020/12/26 04:54:07;;;;;;;11.25;4.85;;;;;;;0.91;71.90;99257.97;124385;1147;22730;-61
2020/12/26 04:56:39;;;;;;;10.00;4.10;;;;;;;0.90;71.96;99256.31;124294;1146;22697;-60
2020/12/26 04:59:07;;;;;;;11.50;4.80;;;;;;;0.88;71.76;99253.83;124440;1145;23483;-60
2020/12/26 05:01:36;;;;;;;12.00;5.03;;;;;;;0.90;72.02;99261.69;124039;1147;22711;-61
2020/12/26 05:04:04;;;;;;;12.13;5.60;;;;;;;0.94;72.92;99266.45;124304;1147;22739;-60
2020/12/26 05:06:31;;;;;;;12.80;6.20;;;;;;;0.97;72.45;99259.86;124340;1146;22696;-61
2020/12/26 05:08:59;;;;;;;13.15;6.25;;;;;;;0.98;73.18;99262.34;124367;1146;22665;-60
2020/12/26 05:11:26;;;;;;;12.20;4.80;;;;;;;1.01;72.43;99261.11;124270;1146;23508;-60
2020/12/26 05:13:54;;;;;;;12.83;5.20;;;;;;;1.03;73.19;99267.91;124426;1147;22765;-61
2020/12/26 05:16:21;;;;;;;20.85;9.30;;;;;;;1.01;72.04;99251.18;124652;1143;22763;-61
2020/12/26 05:18:49;;;;;;;13.40;6.80;;;;;;;1.00;71.70;99254.09;124743;1143;22674;-61
2020/12/26 05:21:23;;;;;;;9.75;4.85;;;;;;;0.97;71.46;99254.50;124535;1143;22782;-60
2020/12/26 05:24:07;;;;;;;9.73;3.60;;;;;;;0.92;71.30;99252.41;124675;1143;22683;-60
2020/12/26 05:26:41;;;;;;;5.80;3.05;;;;;;;0.89;72.16;99263.53;124571;1143;22713;-60
2020/12/26 05:29:09;;;;;;;9.20;5.10;;;;;;;0.87;71.87;99270.95;124778;1144;22696;-60
2020/12/26 05:31:53;;;;;;;15.95;7.45;;;;;;;0.86;71.74;99273.86;124631;1143;27930;-61
2020/12/26 05:34:31;;;;;;;14.25;7.65;;;;;;;0.82;71.65;99278.80;124695;1142;22687;-60
2020/12/26 05:37:02;;;;;;;13.07;6.67;;;;;;;0.78;72.08;99274.86;121196;1144;22943;-60
2020/12/26 05:39:33;;;;;;;12.80;5.83;;;;;;;0.77;72.74;99277.73;120020;1144;28544;-60
2020/12/26 05:42:02;;;;;;;8.60;5.20;;;;;;;0.78;73.12;99287.44;124573;1143;22693;-60
2020/12/26 05:44:49;;;;;;;9.20;4.85;;;;;;;0.76;73.11;99282.27;124828;1144;22692;-60
2020/12/26 05:47:17;;;;;;;8.95;4.65;;;;;;;0.75;72.36;99285.14;124700;1143;22672;-60
2020/12/26 05:49:44;;;;;;;10.07;4.60;;;;;;;0.70;72.69;99286.59;124693;1144;22715;-61
2020/12/26 05:52:12;;;;;;;7.10;3.40;;;;;;;0.70;72.84;99294.64;124676;1142;22757;-60
2020/12/26 05:54:50;;;;;;;5.90;3.00;;;;;;;0.66;73.27;99296.06;124808;1144;22698;-60
2020/12/26 05:57:18;;;;;;;8.80;4.25;;;;;;;0.65;73.24;99305.13;124580;1142;22796;-60
2020/12/26 05:59:52;;;;;;;14.55;7.10;;;;;;;0.64;72.56;99308.00;124790;1144;23310;-60
2020/12/26 06:02:25;;;;;;;13.95;7.00;;;;;;;0.62;73.74;99305.52;124543;1144;22777;-61
2020/12/26 06:04:53;;;;;;;13.65;6.40;;;;;;;0.60;73.80;99307.56;124761;1144;22683;-61
2020/12/26 06:07:22;;;;;;;13.83;6.73;;;;;;;0.57;73.40;99317.88;124582;1143;22917;-61
2020/12/26 06:09:54;;;;;;;12.73;5.97;;;;;;;0.54;72.93;99320.95;124560;1144;22693;-60
2020/12/26 06:12:23;;;;;;;12.95;5.90;;;;;;;0.51;73.72;99322.17;124658;1143;22682;-61
2020/12/26 06:14:50;;;;;;;12.00;6.55;;;;;;;0.50;73.45;99327.73;124609;1144;22760;-61
2020/12/26 06:17:23;;;;;;;14.07;7.50;;;;;;;0.46;73.29;99326.45;124734;1144;22665;-60
2020/12/26 06:20:01;;;;;;;17.00;8.43;;;;;;;0.44;73.63;99326.66;124697;1144;22767;-60
2020/12/26 06:23:02;;;;;;;15.70;7.70;;;;;;;0.42;73.54;99338.63;124650;1144;23476;-61
2020/12/26 06:25:31;;;;;;;13.73;5.87;;;;;;;0.38;73.89;99343.54;124448;1146;25145;-60
2020/12/26 06:28:00;;;;;;;17.25;7.10;;;;;;;0.35;73.32;99343.92;124187;1148;22825;-60
2020/12/26 06:30:28;;;;;;;14.85;6.90;;;;;;;0.32;74.33;99338.95;124076;1147;22792;-59
2020/12/26 06:32:57;;;;;;;16.53;7.27;;;;;;;0.30;73.81;99347.19;124375;1147;22770;-60
2020/12/26 06:35:24;;;;;;;13.35;7.95;;;;;;;0.26;73.89;99329.87;124283;1145;22682;-60
2020/12/26 06:38:11;;;;;;;17.90;9.45;;;;;;;0.24;73.99;99345.30;124419;1145;22712;-60
2020/12/26 06:41:15;;;;;;;27.93;13.55;;;;;;;0.22;73.78;99358.06;124346;1146;22995;-63
2020/12/26 06:43:43;;;;;;;55.50;23.00;;;;;;;0.17;73.55;99359.66;124217;1146;22739;-62
2020/12/26 06:46:14;;;;;;;35.05;16.50;;;;;;;0.05;74.30;99345.98;124427;1146;23387;-63
2020/12/26 06:48:41;;;;;;;38.90;17.50;;;;;;;0.14;74.85;99360.91;124457;1145;23323;-62
2020/12/26 06:51:37;;;;;;;33.70;15.00;;;;;;;0.13;74.29;99356.57;124243;1145;23197;-62
2020/12/26 06:54:07;;;;;;;27.00;12.70;;;;;;;0.14;74.41;99349.36;124276;1146;22792;-62
2020/12/26 06:56:37;;;;;;;29.37;12.13;;;;;;;0.14;74.93;99350.19;124375;1146;22694;-62
2020/12/26 06:59:11;;;;;;;22.60;12.30;;;;;;;0.17;74.89;99359.66;124472;1146;23529;-63
2020/12/26 07:01:46;;;;;;;39.43;17.53;;;;;;;0.17;74.74;99365.85;124540;1143;22759;-63
2020/12/26 07:04:17;;;;;;;41.00;19.83;;;;;;;0.20;75.33;99364.64;124677;1143;24116;-63
2020/12/26 07:06:53;;;;;;;37.53;18.90;;;;;;;0.23;75.81;99373.12;124630;1143;22688;-63
2020/12/26 07:09:36;;;;;;;37.03;19.17;;;;;;;0.26;75.41;99378.09;124665;1142;22807;-63
2020/12/26 07:12:04;;;;;;;39.10;19.30;;;;;;;0.31;75.59;99378.31;124600;1143;22844;-63
2020/12/26 07:14:38;;;;;;;47.13;21.43;;;;;;;0.37;76.52;99378.57;124817;1141;22778;-63
2020/12/26 07:17:26;;;;;;;52.17;23.33;;;;;;;0.40;76.33;99376.33;124630;1143;22792;-61
2020/12/26 07:19:58;;;;;;;32.87;16.23;;;;;;;0.43;75.69;99367.91;124653;1143;22804;-61
2020/12/26 07:22:27;;;;;;;28.73;14.80;;;;;;;0.47;76.11;99371.83;124601;1143;22781;-61
2020/12/26 07:25:02;;;;;;;29.23;12.53;;;;;;;0.50;76.49;99376.80;124701;1143;22770;-60
2020/12/26 07:27:39;;;;;;;25.00;13.00;;;;;;;0.56;76.03;99378.70;124697;1143;22703;-60
2020/12/26 07:30:14;;;;;;;26.73;13.72;;;;;;;0.61;76.35;99372.73;124715;1143;22720;-60
2020/12/26 07:32:58;;;;;;;27.83;13.47;;;;;;;0.67;76.23;99385.36;124580;1143;22692;-60
2020/12/26 07:35:33;;;;;;;17.10;7.97;;;;;;;0.73;75.97;99379.19;124737;1143;22836;-61
2020/12/26 07:38:01;;;;;;;12.50;6.90;;;;;;;0.80;76.60;99381.92;124737;1142;22699;-62
2020/12/26 07:40:38;;;;;;;19.57;7.27;;;;;;;0.86;77.09;99398.06;124821;1142;22780;-60
2020/12/26 07:43:10;;;;;;;10.93;5.97;;;;;;;0.93;76.31;99401.59;124530;1143;25282;-61
2020/12/26 07:45:39;;;;;;;10.93;7.17;;;;;;;0.99;76.46;99405.34;124745;1143;24187;-60
2020/12/26 07:48:07;;;;;;;21.50;8.55;;;;;;;1.03;77.13;99403.89;124632;1142;22650;-61
2020/12/26 07:50:36;;;;;;;14.00;8.03;;;;;;;1.10;76.51;99403.94;124835;1143;22684;-60
2020/12/26 07:53:06;;;;;;;14.40;7.67;;;;;;;1.15;76.64;99413.05;124488;1142;22677;-61
2020/12/26 07:55:34;;;;;;;15.33;7.83;;;;;;;1.22;75.78;99407.70;124839;1143;22695;-60
2020/12/26 07:58:12;;;;;;;15.85;7.90;;;;;;;1.28;76.94;99415.78;124609;1142;22710;-61
2020/12/26 08:00:40;;;;;;;16.65;8.70;;;;;;;1.34;76.23;99419.50;124746;1142;22783;-61
2020/12/26 08:03:09;;;;;;;17.20;8.93;;;;;;;1.40;75.76;99421.39;124633;1142;22675;-61
2020/12/26 08:05:46;;;;;;;23.15;9.80;;;;;;;1.47;76.04;99418.72;124662;1142;22675;-61
2020/12/26 08:08:21;;;;;;;23.67;11.67;;;;;;;1.50;76.69;99419.15;124578;1142;22708;-61
2020/12/26 08:10:55;;;;;;;23.55;12.55;;;;;;;1.54;76.51;99419.58;124770;1143;23794;-60
2020/12/26 08:13:23;;;;;;;30.37;12.87;;;;;;;1.58;76.61;99415.47;124461;1143;22707;-61
2020/12/26 08:16:02;;;;;;;23.83;12.27;;;;;;;1.61;76.06;99423.09;124611;1142;22678;-61
2020/12/26 08:18:31;;;;;;;26.17;13.33;;;;;;;1.62;76.68;99422.89;124498;1143;23502;-61
2020/12/26 08:20:59;;;;;;;20.10;12.35;;;;;;;1.64;76.37;99420.84;124653;1142;23277;-60
2020/12/26 08:23:26;;;;;;;20.47;11.80;;;;;;;1.66;76.63;99420.64;124514;1143;22668;-61
2020/12/26 08:26:00;;;;;;;16.65;9.50;;;;;;;1.69;76.49;99433.66;124677;1143;22687;-61
2020/12/26 08:28:28;;;;;;;16.47;8.40;;;;;;;1.73;76.02;99437.61;124498;1142;22709;-60
2020/12/26 08:30:55;;;;;;;13.65;7.30;;;;;;;1.77;75.87;99431.61;124763;1142;23560;-61
2020/12/26 08:33:29;;;;;;;17.10;9.10;;;;;;;1.81;75.56;99428.52;124634;1142;23687;-60
2020/12/26 08:36:11;;;;;;;22.97;11.30;;;;;;;1.83;76.11;99429.15;124652;1143;23967;-61
2020/12/26 08:38:44;;;;;;;18.90;10.55;;;;;;;1.86;76.13;99429.58;124609;1142;22700;-61
2020/12/26 08:41:12;;;;;;;20.90;10.87;;;;;;;1.89;76.75;99428.31;124623;1143;22682;-60
2020/12/26 08:43:40;;;;;;;17.30;10.10;;;;;;;1.90;75.70;99421.91;124612;1143;22684;-61
2020/12/26 08:46:15;;;;;;;19.53;10.57;;;;;;;1.94;75.68;99421.31;124884;1142;22735;-64
2020/12/26 08:48:42;;;;;;;16.50;9.53;;;;;;;1.96;75.85;99400.44;124735;1142;22696;-64
2020/12/26 08:51:22;;;;;;;16.53;8.23;;;;;;;1.99;76.50;99402.72;125036;1142;22790;-64
2020/12/26 08:53:50;;;;;;;17.55;7.90;;;;;;;2.02;76.40;99394.23;124735;1143;22647;-64
2020/12/26 08:56:34;;;;;;;14.70;7.60;;;;;;;2.05;75.75;99387.62;125057;1142;23402;-63
2020/12/26 08:59:02;;;;;;;13.90;7.25;;;;;;;2.06;76.04;99373.98;124737;1142;22771;-64
2020/12/26 09:01:29;;;;;;;14.90;6.35;;;;;;;2.08;76.34;99376.47;124921;1142;23326;-64
2020/12/26 09:03:57;;;;;;;13.90;7.50;;;;;;;2.11;76.01;99368.82;125081;1142;23693;-64
2020/12/26 09:06:34;;;;;;;23.13;10.07;;;;;;;2.15;75.70;99369.24;124597;1143;22742;-63
2020/12/26 09:09:18;;;;;;;21.20;10.38;;;;;;;2.17;75.96;99369.83;124749;1142;23498;-64
2020/12/26 09:12:13;;;;;;;22.57;10.73;;;;;;;2.19;75.63;99366.94;124917;1142;22713;-64
2020/12/26 09:14:40;;;;;;;20.85;9.15;;;;;;;2.21;75.71;99365.70;124638;1143;23973;-64
2020/12/26 09:17:09;;;;;;;27.97;12.73;;;;;;;2.22;75.72;99370.05;124909;1142;22675;-64
2020/12/26 09:19:43;;;;;;;20.45;10.20;;;;;;;2.22;76.12;99385.34;124811;1142;22694;-64
2020/12/26 09:22:11;;;;;;;19.07;10.07;;;;;;;2.23;75.76;99387.83;124801;1142;22654;-63
2020/12/26 09:24:38;;;;;;;15.67;7.90;;;;;;;2.22;76.32;99394.24;124849;1142;22679;-63
2020/12/26 09:27:26;;;;;;;12.20;5.90;;;;;;;2.22;75.90;99396.09;120958;1143;26415;-60
2020/12/26 09:30:06;;;;;;;11.47;5.23;;;;;;;2.24;76.48;99402.10;120292;1143;23007;-60
2020/12/26 09:32:34;;;;;;;7.70;4.75;;;;;;;2.25;76.54;99412.65;124883;1142;22739;-60
2020/12/26 09:35:16;;;;;;;10.35;5.45;;;;;;;2.26;75.75;99422.37;124933;1142;22720;-60
2020/12/26 09:37:53;;;;;;;11.70;6.70;;;;;;;2.28;76.33;99430.23;124952;1143;22675;-61
2020/12/26 09:40:34;;;;;;;10.70;6.78;;;;;;;2.31;75.99;99440.58;124832;1142;23366;-61
2020/12/26 09:43:02;;;;;;;9.83;5.77;;;;;;;2.32;75.83;99437.66;124855;1142;22648;-61
2020/12/26 09:45:29;;;;;;;11.93;6.30;;;;;;;2.31;76.17;99436.00;124807;1142;22705;-61
2020/12/26 09:47:57;;;;;;;12.65;6.75;;;;;;;2.33;76.80;99447.38;124894;1143;23574;-61
2020/12/26 09:50:25;;;;;;;12.40;6.10;;;;;;;2.34;76.02;99458.95;124830;1142;22788;-61
2020/12/26 09:52:52;;;;;;;10.07;6.10;;;;;;;2.32;76.33;99453.78;124604;1142;22684;-60
2020/12/26 09:55:27;;;;;;;14.30;7.40;;;;;;;2.34;76.23;99457.09;124196;1142;22998;-63
2020/12/26 09:57:55;;;;;;;13.53;8.53;;;;;;;2.36;75.96;99464.95;120198;1144;22994;-63
2020/12/26 10:00:23;;;;;;;18.47;9.37;;;;;;;2.37;76.10;99467.44;124788;1142;22710;-63
2020/12/26 10:02:51;;;;;;;17.15;9.40;;;;;;;2.38;75.84;99458.34;124726;1142;22749;-64
2020/12/26 10:05:19;;;;;;;15.63;8.70;;;;;;;2.38;76.54;99463.73;124894;1142;23444;-64
2020/12/26 10:07:47;;;;;;;26.45;12.60;;;;;;;2.39;76.09;99464.55;124616;1143;22774;-64
2020/12/26 10:10:15;;;;;;;29.70;11.15;;;;;;;2.37;76.45;99466.62;124980;1142;22680;-64
2020/12/26 10:12:42;;;;;;;19.30;10.05;;;;;;;2.35;75.89;99472.20;124826;1142;23275;-64
2020/12/26 10:15:09;;;;;;;19.00;8.83;;;;;;;2.35;76.08;99468.68;124899;1142;22687;-64
2020/12/26 10:17:40;;;;;;;17.13;7.30;;;;;;;2.34;75.69;99461.64;124720;1142;22676;-64
2020/12/26 10:20:07;;;;;;;17.03;9.23;;;;;;;2.33;76.57;99460.81;124840;1143;22678;-64
2020/12/26 10:22:34;;;;;;;17.77;10.60;;;;;;;2.32;76.38;99458.33;124776;1142;23310;-63
2020/12/26 10:25:02;;;;;;;21.70;11.80;;;;;;;2.32;76.25;99456.47;124831;1142;22682;-64
2020/12/26 10:27:29;;;;;;;24.63;13.23;;;;;;;2.36;76.59;99455.03;120277;1143;22994;-63
2020/12/26 10:29:57;;;;;;;21.90;12.35;;;;;;;2.40;76.27;99460.83;120075;1143;22885;-63
2020/12/26 10:32:24;;;;;;;16.27;8.90;;;;;;;2.41;76.70;99465.17;120125;1144;25385;-63
2020/12/26 10:35:06;;;;;;;20.93;11.40;;;;;;;2.44;76.24;99476.36;120148;1144;22941;-63
2020/12/26 10:37:33;;;;;;;25.23;12.23;;;;;;;2.45;76.38;99472.60;120227;1144;23342;-63
2020/12/26 10:40:01;;;;;;;21.25;11.15;;;;;;;2.47;76.30;99478.61;120149;1144;25796;-62
2020/12/26 10:42:28;;;;;;;16.67;9.13;;;;;;;2.48;76.23;99477.58;120306;1143;22930;-62
2020/12/26 10:44:57;;;;;;;22.25;11.85;;;;;;;2.43;76.10;99463.11;124559;1143;24065;-62
2020/12/26 10:47:25;;;;;;;18.80;10.15;;;;;;;2.48;76.03;99471.36;124880;1142;22686;-63
2020/12/26 10:49:52;;;;;;;18.25;10.25;;;;;;;2.47;76.44;99475.09;124599;1142;22667;-63
2020/12/26 10:52:19;;;;;;;20.70;11.95;;;;;;;2.44;76.46;99476.36;124860;1142;22711;-62
2020/12/26 10:54:47;;;;;;;21.13;11.40;;;;;;;2.42;76.24;99481.11;124667;1143;23669;-62
2020/12/26 10:57:14;;;;;;;11.75;7.35;;;;;;;2.44;76.40;99487.11;124705;1143;23471;-62
2020/12/26 10:59:41;;;;;;;11.50;6.50;;;;;;;2.45;76.13;99474.49;124596;1142;22724;-63
2020/12/26 11:02:09;;;;;;;10.15;6.40;;;;;;;2.44;76.59;99473.67;124784;1142;23531;-62
2020/12/26 11:04:36;;;;;;;11.63;6.00;;;;;;;2.48;76.86;99476.74;124640;1143;22735;-62
2020/12/26 11:07:04;;;;;;;17.20;8.85;;;;;;;2.49;77.21;99481.92;124700;1143;22680;-63
2020/12/26 11:09:35;;;;;;;25.45;11.05;;;;;;;2.53;76.80;99490.41;124566;1143;22681;-62
2020/12/26 11:12:02;;;;;;;29.90;11.05;;;;;;;2.56;76.76;99498.07;124734;1143;22681;-62
2020/12/26 11:14:30;;;;;;;15.65;7.35;;;;;;;2.57;76.33;99493.52;124592;1142;22690;-63
2020/12/26 11:16:58;;;;;;;12.15;6.60;;;;;;;2.57;76.75;99488.97;124871;1142;22681;-63
2020/12/26 11:19:26;;;;;;;12.10;6.85;;;;;;;2.56;76.70;99489.17;124706;1143;23767;-63
2020/12/26 11:21:54;;;;;;;11.45;6.70;;;;;;;2.56;76.42;99491.86;124676;1143;22756;-63
2020/12/26 11:24:22;;;;;;;18.03;7.70;;;;;;;2.53;76.23;99490.41;124879;1143;22692;-63
2020/12/26 11:26:49;;;;;;;23.95;10.70;;;;;;;2.53;76.09;99493.09;121519;1143;26340;-62
2020/12/26 11:29:17;;;;;;;18.67;10.00;;;;;;;2.52;75.96;99491.44;124864;1143;22649;-62
2020/12/26 11:31:44;;;;;;;13.35;8.15;;;;;;;2.52;76.39;99496.82;124631;1142;23332;-63
2020/12/26 11:34:11;;;;;;;14.73;9.07;;;;;;;2.52;76.03;99495.98;124564;1143;22698;-63
2020/12/26 11:36:39;;;;;;;12.83;6.90;;;;;;;2.48;76.91;99484.81;124591;1143;22692;-63
2020/12/26 11:39:08;;;;;;;13.00;7.77;;;;;;;2.52;75.90;99486.06;124753;1143;23399;-63
2020/12/26 11:41:35;;;;;;;12.00;6.30;;;;;;;2.52;76.88;99486.06;124645;1142;23283;-63